Time;durP1;ratioP1;P1;durP2;ratioP2;P2;SDS_P1;SDS_P2;PMS_P1;PMS_P2;Temp;Humidity;BMP_temperature;BMP_pressure;BME280_temperature;BME280_humidity;BME280_pressure;Samples;Min_cycle;Max_cycle;Signal;HPM_P1;HPM_P2
2021/05/12 00:01:45;;;;;;;1.87;1.77;;;11.40;99.90;;;;;;5072074;28;20177;-75
2021/05/12 00:04:11;;;;;;;2.80;1.67;;;11.40;99.90;;;;;;5072435;28;20636;-76
2021/05/12 00:06:36;;;;;;;1.30;1.20;;;11.40;99.90;;;;;;5055827;28;20232;-76
2021/05/12 00:09:02;;;;;;;3.07;1.47;;;11.40;99.90;;;;;;5034794;28;20197;-76
2021/05/12 00:11:28;;;;;;;1.77;1.67;;;11.40;99.90;;;;;;5052754;28;20603;-76
2021/05/12 00:13:54;;;;;;;1.60;1.30;;;11.40;99.90;;;;;;5034320;28;20505;-76
2021/05/12 00:16:19;;;;;;;3.03;1.20;;;11.40;99.90;;;;;;5064289;28;20626;-77
2021/05/12 00:18:46;;;;;;;1.17;1.17;;;11.40;99.90;;;;;;5054537;28;20172;-76
2021/05/12 00:21:22;;;;;;;4.70;1.57;;;11.40;99.90;;;;;;5060512;28;20546;-76
2021/05/12 00:23:59;;;;;;;2.57;1.90;;;11.40;99.90;;;;;;5034363;28;20767;-77
2021/05/12 00:26:26;;;;;;;2.70;2.30;;;11.50;99.90;;;;;;5064397;28;20444;-76
2021/05/12 00:28:52;;;;;;;5.20;2.10;;;11.50;99.90;;;;;;5072484;28;20781;-76
2021/05/12 00:31:17;;;;;;;2.33;2.03;;;11.40;99.90;;;;;;5071865;28;20508;-76
2021/05/12 00:33:43;;;;;;;2.93;2.53;;;11.40;99.90;;;;;;5072095;28;20229;-76
2021/05/12 00:36:08;;;;;;;3.97;2.30;;;11.40;99.90;;;;;;5073053;28;20198;-74
2021/05/12 00:38:34;;;;;;;3.83;2.40;;;11.40;99.90;;;;;;5073035;28;20171;-75
2021/05/12 00:41:00;;;;;;;7.10;2.70;;;11.40;99.90;;;;;;5039888;28;20652;-75
2021/05/12 00:43:25;;;;;;;2.40;2.30;;;11.40;99.90;;;;;;5051640;28;20179;-75
2021/05/12 00:45:51;;;;;;;2.63;2.43;;;11.40;99.90;;;;;;5063008;28;20183;-75
2021/05/12 00:48:16;;;;;;;4.20;1.63;;;11.30;99.90;;;;;;5071948;28;20167;-75
2021/05/12 00:50:42;;;;;;;4.90;2.10;;;11.30;99.90;;;;;;5071920;28;20527;-75
2021/05/12 00:53:08;;;;;;;2.70;2.37;;;11.30;99.90;;;;;;5073114;28;20649;-73
2021/05/12 00:55:34;;;;;;;3.43;2.13;;;11.30;99.90;;;;;;5063353;28;20599;-73
2021/05/12 00:57:59;;;;;;;2.10;2.00;;;11.20;99.90;;;;;;5051151;28;20229;-73
2021/05/12 01:00:28;;;;;;;2.80;2.17;;;11.20;99.90;;;;;;5058168;28;20434;-73
2021/05/12 01:02:54;;;;;;;3.23;2.60;;;11.10;99.90;;;;;;5071602;28;20238;-73
2021/05/12 01:05:33;;;;;;;2.20;2.10;;;11.10;99.90;;;;;;5071523;28;20923;-73
2021/05/12 01:08:00;;;;;;;2.70;2.30;;;11.10;99.90;;;;;;5071817;28;20195;-72
2021/05/12 01:10:25;;;;;;;2.50;2.40;;;11.10;99.90;;;;;;5071196;28;20423;-72
2021/05/12 01:12:51;;;;;;;3.33;2.13;;;11.00;99.90;;;;;;5071793;28;20413;-72
2021/05/12 01:15:17;;;;;;;6.53;2.07;;;11.00;99.90;;;;;;5067137;28;20617;-73
2021/05/12 01:17:43;;;;;;;4.87;2.27;;;11.10;99.90;;;;;;5051784;28;20218;-73
2021/05/12 01:20:10;;;;;;;5.33;1.80;;;11.00;99.90;;;;;;5051526;28;20169;-73
2021/05/12 01:22:36;;;;;;;1.97;1.87;;;11.00;99.90;;;;;;5034785;28;20672;-73
2021/05/12 01:25:02;;;;;;;6.30;1.73;;;11.00;99.90;;;;;;5051367;28;20501;-73
2021/05/12 01:27:28;;;;;;;1.67;1.57;;;10.90;99.90;;;;;;5065790;28;20203;-73
2021/05/12 01:29:54;;;;;;;2.33;1.70;;;10.90;99.90;;;;;;5053439;28;20750;-73
2021/05/12 01:32:20;;;;;;;2.03;1.43;;;10.90;99.90;;;;;;5071012;28;20198;-73
2021/05/12 01:34:46;;;;;;;2.50;1.53;;;10.90;99.90;;;;;;5071263;28;20673;-73
2021/05/12 01:37:12;;;;;;;4.30;1.47;;;10.80;99.90;;;;;;5059597;28;20494;-73
2021/05/12 01:39:38;;;;;;;1.73;1.63;;;10.80;99.90;;;;;;5051375;28;20206;-73
2021/05/12 01:42:04;;;;;;;2.33;1.67;;;10.80;99.90;;;;;;5033446;28;20192;-73
2021/05/12 01:44:29;;;;;;;1.83;1.63;;;10.80;99.90;;;;;;5051250;28;20799;-72
2021/05/12 01:46:55;;;;;;;2.23;1.73;;;10.80;99.90;;;;;;5058941;28;20208;-72
2021/05/12 01:49:21;;;;;;;2.10;2.00;;;10.80;99.90;;;;;;5052962;28;20399;-73
2021/05/12 01:51:46;;;;;;;5.97;1.93;;;10.80;99.90;;;;;;5070496;28;20178;-72
2021/05/12 01:54:12;;;;;;;2.37;2.23;;;10.80;99.90;;;;;;5070922;28;20192;-72
2021/05/12 01:56:40;;;;;;;3.27;2.40;;;10.80;99.90;;;;;;5067281;28;20743;-72
2021/05/12 01:59:07;;;;;;;4.87;3.00;;;10.80;99.90;;;;;;5054970;28;20648;-72
2021/05/12 02:01:33;;;;;;;3.63;3.33;;;10.70;99.90;;;;;;5055060;28;20426;-72
2021/05/12 02:04:03;;;;;;;3.67;3.37;;;10.70;99.90;;;;;;5054772;28;20430;-72
2021/05/12 02:06:29;;;;;;;4.13;2.77;;;10.70;99.90;;;;;;5056704;28;20247;-73
2021/05/12 02:08:54;;;;;;;5.93;3.40;;;10.70;99.90;;;;;;5074768;28;20411;-72
2021/05/12 02:11:20;;;;;;;5.03;3.20;;;10.80;99.90;;;;;;5074128;28;20176;-72
2021/05/12 02:13:46;;;;;;;3.67;3.37;;;10.70;99.90;;;;;;5054638;28;20546;-72
2021/05/12 02:16:11;;;;;;;7.70;3.83;;;10.70;99.90;;;;;;5054486;28;20589;-72
2021/05/12 02:18:37;;;;;;;5.40;4.13;;;10.70;99.90;;;;;;5036834;28;20205;-72
2021/05/12 02:21:03;;;;;;;8.77;4.60;;;10.70;99.90;;;;;;5062474;28;20199;-72
2021/05/12 02:23:30;;;;;;;6.17;4.13;;;10.70;99.90;;;;;;5071650;28;20603;-71
2021/05/12 02:25:57;;;;;;;3.63;3.30;;;10.70;99.90;;;;;;5075535;28;20406;-75
2021/05/12 02:28:22;;;;;;;4.53;4.10;;;10.70;99.90;;;;;;5057605;28;20437;-75
2021/05/12 02:30:48;;;;;;;9.20;4.07;;;10.60;99.90;;;;;;5063126;28;20453;-75
2021/05/12 02:35:41;;;;;;;8.87;4.73;;;10.60;99.90;;;;;;5020817;28;20260;-78
2021/05/12 02:38:07;;;;;;;5.53;4.50;;;10.60;99.90;;;;;;5019447;28;20440;-79
2021/05/12 02:40:33;;;;;;;6.50;4.37;;;10.60;99.90;;;;;;5014582;28;20181;-79
2021/05/12 02:43:00;;;;;;;4.90;4.40;;;10.60;99.90;;;;;;4994721;28;20431;-79
2021/05/12 02:45:27;;;;;;;6.40;5.30;;;10.70;99.90;;;;;;5024750;28;20219;-78
2021/05/12 02:47:59;;;;;;;6.33;5.10;;;10.60;99.90;;;;;;5014918;28;20910;-78
2021/05/12 02:50:31;;;;;;;10.20;4.80;;;10.60;99.90;;;;;;5003943;28;20438;-80
2021/05/12 02:52:57;;;;;;;6.30;5.63;;;10.60;99.90;;;;;;5034619;28;20431;-79
2021/05/12 02:55:24;;;;;;;6.40;5.20;;;10.60;99.90;;;;;;5031404;28;20519;-80
2021/05/12 02:57:50;;;;;;;8.23;5.10;;;10.60;99.90;;;;;;5034582;28;20422;-79
2021/05/12 03:00:18;;;;;;;8.00;6.20;;;10.60;99.90;;;;;;5029527;28;20470;-79
2021/05/12 03:02:44;;;;;;;6.70;6.10;;;10.50;99.90;;;;;;5034111;28;20614;-78
2021/05/12 03:05:11;;;;;;;5.43;5.03;;;10.50;99.90;;;;;;5031391;28;20485;-79
2021/05/12 03:07:37;;;;;;;8.93;7.20;;;10.50;99.90;;;;;;5012233;28;20447;-79
2021/05/12 03:10:07;;;;;;;7.40;6.10;;;10.50;99.90;;;;;;5032672;28;20414;-79
2021/05/12 03:12:32;;;;;;;15.90;5.80;;;10.50;99.90;;;;;;5032889;28;20188;-79
2021/05/12 03:14:58;;;;;;;18.07;7.30;;;10.60;99.90;;;;;;5030290;28;20982;-78
2021/05/12 03:17:24;;;;;;;13.60;7.27;;;10.60;99.90;;;;;;5015983;28;20235;-78
2021/05/12 03:19:49;;;;;;;8.27;7.40;;;10.60;99.90;;;;;;5023401;28;20192;-80
2021/05/12 03:22:15;;;;;;;7.63;6.73;;;10.50;99.90;;;;;;5029435;28;20198;-80
2021/05/12 03:24:40;;;;;;;12.53;7.50;;;10.60;99.90;;;;;;5033950;28;20197;-79
2021/05/12 03:27:06;;;;;;;9.53;8.00;;;10.60;99.90;;;;;;5031176;28;20184;-79
2021/05/12 03:29:32;;;;;;;8.37;7.10;;;10.60;99.90;;;;;;5027322;28;20664;-79
2021/05/12 03:32:00;;;;;;;15.00;8.60;;;10.60;99.90;;;;;;5032146;28;20189;-80
2021/05/12 03:34:25;;;;;;;10.00;7.57;;;10.60;99.90;;;;;;5033193;28;20219;-79
2021/05/12 03:36:51;;;;;;;12.63;8.40;;;10.60;99.90;;;;;;5032646;28;20437;-79
2021/05/12 03:39:17;;;;;;;14.50;8.10;;;10.60;99.90;;;;;;5013457;28;20188;-78
2021/05/12 03:41:42;;;;;;;11.00;8.87;;;10.60;99.90;;;;;;5020956;28;20679;-79
2021/05/12 03:44:08;;;;;;;11.73;9.20;;;10.60;99.90;;;;;;5017050;28;20218;-79
2021/05/12 03:46:34;;;;;;;11.63;10.17;;;10.60;99.90;;;;;;5031029;28;20524;-79
2021/05/12 03:48:59;;;;;;;14.90;10.00;;;10.60;99.90;;;;;;5031286;28;20432;-79
2021/05/12 03:51:25;;;;;;;11.63;9.30;;;10.60;99.90;;;;;;5029099;28;20653;-80
2021/05/12 03:53:50;;;;;;;10.07;9.07;;;10.60;99.90;;;;;;5032299;28;20277;-78
2021/05/12 03:56:16;;;;;;;11.60;9.37;;;10.70;99.90;;;;;;5020210;28;20232;-78
2021/05/12 03:58:41;;;;;;;13.83;9.63;;;10.70;99.90;;;;;;5013810;28;20181;-77
2021/05/12 04:01:07;;;;;;;12.37;9.90;;;10.80;99.90;;;;;;5017267;28;20212;-79
2021/05/12 04:03:33;;;;;;;16.50;10.00;;;10.70;99.90;;;;;;5012790;28;20200;-79
2021/05/12 04:05:58;;;;;;;12.40;9.70;;;10.70;99.90;;;;;;5014608;28;20185;-79
2021/05/12 04:08:25;;;;;;;11.43;10.23;;;10.70;99.90;;;;;;5012766;28;20600;-78
2021/05/12 04:10:51;;;;;;;13.43;10.60;;;10.70;99.90;;;;;;5016839;28;20178;-79
2021/05/12 04:13:18;;;;;;;14.60;10.93;;;10.70;99.90;;;;;;5002081;28;20501;-78
2021/05/12 04:15:44;;;;;;;13.73;9.33;;;10.70;99.90;;;;;;5022218;28;20508;-75
2021/05/12 04:18:10;;;;;;;12.30;9.67;;;10.70;99.90;;;;;;5031094;28;20467;-75
2021/05/12 04:20:35;;;;;;;16.03;10.23;;;10.70;99.90;;;;;;5024032;28;20193;-75
2021/05/12 04:23:01;;;;;;;21.07;10.47;;;10.70;99.90;;;;;;5029640;28;20212;-75
2021/05/12 04:25:26;;;;;;;11.70;9.67;;;10.80;99.90;;;;;;5030559;28;20279;-74
2021/05/12 04:27:52;;;;;;;14.53;9.00;;;10.80;99.90;;;;;;5021047;28;20226;-75
2021/05/12 04:30:20;;;;;;;15.57;8.73;;;10.80;99.90;;;;;;5029679;28;20189;-75
2021/05/12 04:32:46;;;;;;;11.47;9.00;;;10.80;99.90;;;;;;5029311;28;20219;-75
2021/05/12 04:35:14;;;;;;;13.13;9.60;;;10.80;99.90;;;;;;5026787;28;20507;-75
2021/05/12 04:37:40;;;;;;;16.63;10.07;;;10.80;99.90;;;;;;5012938;28;21792;-76
2021/05/12 04:40:08;;;;;;;19.57;8.80;;;10.80;99.90;;;;;;5030650;28;20976;-76
2021/05/12 04:42:33;;;;;;;22.00;8.90;;;10.90;99.90;;;;;;5012001;28;20796;-75
2021/05/12 04:44:59;;;;;;;11.80;9.43;;;10.90;99.90;;;;;;5010460;28;20455;-75
2021/05/12 04:47:24;;;;;;;12.63;8.50;;;10.90;99.90;;;;;;5030137;28;20189;-75
2021/05/12 04:49:50;;;;;;;8.33;7.47;;;10.90;99.90;;;;;;5029601;28;20187;-76
2021/05/12 04:52:16;;;;;;;11.60;7.73;;;10.80;99.90;;;;;;5026029;28;20196;-74
2021/05/12 04:54:41;;;;;;;9.40;7.20;;;10.90;99.90;;;;;;5022496;28;20208;-75
2021/05/12 04:57:07;;;;;;;9.73;7.37;;;10.90;99.90;;;;;;5016098;28;20176;-76
2021/05/12 04:59:32;;;;;;;8.00;7.10;;;10.80;99.90;;;;;;5011630;28;20196;-75
2021/05/12 05:01:59;;;;;;;16.10;7.07;;;10.80;99.90;;;;;;4995152;28;20556;-72
2021/05/12 05:04:25;;;;;;;8.60;7.17;;;10.80;99.90;;;;;;5024239;28;20296;-72
2021/05/12 05:06:51;;;;;;;9.67;7.57;;;10.80;99.90;;;;;;5014055;28;20551;-73
2021/05/12 05:09:17;;;;;;;9.33;6.23;;;10.90;99.90;;;;;;5011427;28;20431;-73
2021/05/12 05:11:43;;;;;;;8.13;6.60;;;10.80;99.90;;;;;;5024248;28;20580;-73
2021/05/12 05:14:08;;;;;;;15.00;6.37;;;10.90;99.90;;;;;;5028551;28;20522;-73
2021/05/12 05:16:34;;;;;;;12.13;6.70;;;10.90;99.90;;;;;;5027375;28;20200;-73
2021/05/12 05:19:00;;;;;;;12.90;7.13;;;10.90;99.90;;;;;;5029008;28;20181;-73
2021/05/12 05:21:26;;;;;;;11.10;6.70;;;10.90;99.90;;;;;;5028259;28;20264;-73
2021/05/12 05:23:53;;;;;;;9.97;6.50;;;10.90;99.90;;;;;;5013275;28;20267;-73
2021/05/12 05:26:19;;;;;;;10.73;6.00;;;10.90;99.90;;;;;;5020099;28;20448;-73
2021/05/12 05:28:44;;;;;;;11.23;6.00;;;11.00;99.90;;;;;;5028967;28;20439;-73
2021/05/12 05:31:10;;;;;;;9.10;6.03;;;10.90;99.90;;;;;;5023319;28;20177;-73
2021/05/12 05:33:35;;;;;;;7.87;5.70;;;10.90;99.90;;;;;;5022984;28;20286;-73
2021/05/12 05:36:01;;;;;;;7.17;5.50;;;10.90;99.90;;;;;;5035185;28;20263;-72
2021/05/12 05:38:26;;;;;;;6.60;5.30;;;10.90;99.90;;;;;;5029244;28;20183;-73
2021/05/12 05:40:52;;;;;;;12.70;5.00;;;10.90;99.90;;;;;;5035106;28;20189;-72
2021/05/12 05:43:17;;;;;;;9.37;5.00;;;10.90;99.90;;;;;;5032273;28;20197;-73
2021/05/12 05:45:43;;;;;;;6.87;6.27;;;10.90;99.90;;;;;;5032886;28;20209;-73
2021/05/12 05:48:09;;;;;;;9.20;5.57;;;10.90;99.90;;;;;;5032612;28;20236;-73
2021/05/12 05:50:35;;;;;;;7.20;5.17;;;11.00;99.90;;;;;;5032871;28;20245;-73
2021/05/12 05:53:00;;;;;;;12.13;6.07;;;11.00;99.90;;;;;;5033868;28;20177;-73
2021/05/12 05:55:26;;;;;;;9.87;5.67;;;11.00;99.90;;;;;;5033275;28;20240;-73
2021/05/12 05:57:52;;;;;;;11.90;5.80;;;11.00;99.90;;;;;;5034825;28;20283;-72
2021/05/12 06:00:19;;;;;;;8.30;4.90;;;11.00;99.90;;;;;;5025756;28;20182;-73
2021/05/12 06:02:45;;;;;;;7.93;5.17;;;11.00;99.90;;;;;;5034795;28;20177;-72
2021/05/12 06:05:11;;;;;;;5.80;4.70;;;11.00;99.90;;;;;;5032107;28;20502;-73
2021/05/12 06:07:38;;;;;;;4.87;4.00;;;11.00;99.90;;;;;;5031867;28;20423;-73
2021/05/12 06:10:05;;;;;;;9.30;5.50;;;11.10;99.90;;;;;;5026711;28;20546;-72
2021/05/12 06:12:30;;;;;;;10.90;6.60;;;11.00;99.90;;;;;;5031518;28;20860;-73
2021/05/12 06:14:56;;;;;;;7.27;5.20;;;11.10;99.90;;;;;;5029226;28;20559;-73
2021/05/12 06:17:21;;;;;;;7.57;4.67;;;11.10;99.90;;;;;;5028742;28;20193;-74
2021/05/12 06:19:47;;;;;;;9.90;4.80;;;11.10;99.90;;;;;;5015672;28;20189;-73
2021/05/12 06:22:12;;;;;;;5.97;4.70;;;11.10;99.90;;;;;;5027577;28;20243;-73
2021/05/12 06:24:39;;;;;;;4.60;4.20;;;11.20;99.90;;;;;;5034090;28;20203;-73
2021/05/12 06:27:05;;;;;;;5.30;4.50;;;11.20;99.90;;;;;;5031042;28;20276;-73
2021/05/12 06:29:31;;;;;;;5.93;4.03;;;11.20;99.90;;;;;;5032045;28;20436;-73
2021/05/12 06:31:57;;;;;;;4.70;4.23;;;11.20;99.90;;;;;;5024541;28;20447;-73
2021/05/12 06:34:22;;;;;;;5.90;4.50;;;11.20;99.90;;;;;;5025376;28;20220;-73
2021/05/12 06:36:48;;;;;;;4.83;3.23;;;11.20;99.90;;;;;;5032151;28;20647;-73
2021/05/12 06:39:13;;;;;;;4.97;3.80;;;11.30;99.90;;;;;;5026304;28;20239;-73
2021/05/12 06:41:39;;;;;;;4.53;3.43;;;11.30;99.90;;;;;;5017125;28;20213;-72
2021/05/12 06:44:05;;;;;;;3.90;3.50;;;11.40;99.90;;;;;;5030670;28;20288;-72
2021/05/12 06:46:31;;;;;;;5.93;3.90;;;11.30;99.90;;;;;;5005358;28;20182;-73
2021/05/12 06:48:57;;;;;;;5.13;3.90;;;11.40;99.90;;;;;;5018978;28;21153;-73
2021/05/12 06:51:23;;;;;;;9.60;3.80;;;11.40;99.90;;;;;;5014215;28;20644;-73
2021/05/12 06:53:48;;;;;;;3.77;2.87;;;11.50;99.90;;;;;;5018512;28;20197;-73
2021/05/12 06:56:14;;;;;;;3.33;3.00;;;11.50;99.90;;;;;;5026414;28;20293;-73
2021/05/12 06:58:42;;;;;;;4.20;3.30;;;11.50;99.90;;;;;;5015608;28;20195;-74
2021/05/12 07:01:09;;;;;;;4.30;3.43;;;11.50;99.90;;;;;;5020663;28;20519;-73
2021/05/12 07:03:35;;;;;;;4.50;3.47;;;11.40;99.90;;;;;;5015811;28;20839;-73
2021/05/12 07:06:02;;;;;;;3.93;2.63;;;11.40;99.90;;;;;;5028824;28;20532;-73
2021/05/12 07:08:28;;;;;;;3.57;3.27;;;11.50;99.90;;;;;;5033387;28;20170;-73
2021/05/12 07:10:53;;;;;;;3.83;3.00;;;11.50;99.90;;;;;;5005343;28;20480;-74
2021/05/12 07:13:19;;;;;;;6.63;3.43;;;11.50;99.90;;;;;;4995741;28;20827;-74
2021/05/12 07:15:45;;;;;;;8.30;3.47;;;11.50;99.90;;;;;;5023369;28;20239;-73
2021/05/12 07:18:11;;;;;;;3.20;2.90;;;11.50;99.90;;;;;;5030220;28;20178;-73
2021/05/12 07:20:37;;;;;;;4.33;3.23;;;11.60;99.90;;;;;;5034540;28;20230;-73
2021/05/12 07:23:11;;;;;;;9.03;3.50;;;11.60;99.90;;;;;;5015163;28;20796;-73
2021/05/12 07:25:38;;;;;;;3.57;3.17;;;11.60;99.90;;;;;;5004174;28;20463;-73
2021/05/12 07:28:04;;;;;;;4.00;2.73;;;11.60;99.90;;;;;;5010225;28;20436;-72
2021/05/12 07:30:31;;;;;;;5.37;4.13;;;11.70;99.90;;;;;;5023808;28;20440;-72
2021/05/12 07:32:56;;;;;;;8.10;2.93;;;11.70;99.90;;;;;;5015890;28;21021;-72
2021/05/12 07:35:23;;;;;;;4.60;3.40;;;11.70;99.90;;;;;;5022733;28;20476;-73
2021/05/12 07:37:48;;;;;;;6.73;3.50;;;11.70;99.90;;;;;;5016513;28;20247;-72
2021/05/12 07:40:14;;;;;;;8.40;3.57;;;11.70;99.90;;;;;;5032790;28;20507;-73
2021/05/12 07:42:43;;;;;;;2.80;2.70;;;11.60;99.90;;;;;;5028588;28;20192;-73
2021/05/12 07:45:11;;;;;;;8.13;3.20;;;11.70;99.90;;;;;;5033294;28;20535;-73
2021/05/12 07:47:36;;;;;;;4.60;3.00;;;11.60;99.90;;;;;;5033578;28;20534;-73
2021/05/12 07:50:03;;;;;;;9.30;2.60;;;11.70;99.90;;;;;;5030314;28;20475;-73
2021/05/12 07:52:29;;;;;;;4.10;3.20;;;11.70;99.90;;;;;;5032712;28;20186;-74
2021/05/12 07:54:54;;;;;;;3.00;2.80;;;11.70;99.90;;;;;;5017803;28;20472;-73
2021/05/12 07:57:20;;;;;;;2.47;2.27;;;11.70;99.90;;;;;;5008787;28;20232;-73
2021/05/12 07:59:45;;;;;;;4.20;2.40;;;11.70;99.90;;;;;;5030490;28;20189;-73
2021/05/12 08:02:11;;;;;;;7.73;3.00;;;11.70;99.90;;;;;;5025493;28;20188;-73
2021/05/12 08:04:37;;;;;;;2.40;2.23;;;11.70;99.90;;;;;;5027816;28;20225;-73
2021/05/12 08:07:03;;;;;;;6.33;3.30;;;11.70;99.90;;;;;;5025005;28;20190;-73
2021/05/12 08:09:29;;;;;;;3.10;2.90;;;11.70;99.90;;;;;;5031472;28;20198;-73
2021/05/12 08:11:55;;;;;;;5.47;2.90;;;11.60;99.90;;;;;;5039169;28;20475;-73
2021/05/12 08:14:20;;;;;;;5.80;3.10;;;11.60;99.90;;;;;;5025991;28;20252;-73
2021/05/12 08:16:46;;;;;;;4.03;2.47;;;11.60;99.90;;;;;;5037984;28;20173;-73
2021/05/12 08:19:12;;;;;;;4.10;2.93;;;11.60;99.90;;;;;;5030653;28;20213;-73
2021/05/12 08:21:38;;;;;;;3.60;3.20;;;11.60;99.90;;;;;;5002273;28;20191;-72
2021/05/12 08:24:04;;;;;;;3.00;2.70;;;11.70;99.90;;;;;;5013823;28;20453;-73
2021/05/12 08:26:30;;;;;;;2.90;2.70;;;11.70;99.90;;;;;;5029003;28;20651;-72
2021/05/12 08:28:58;;;;;;;3.20;2.90;;;11.70;99.90;;;;;;5031471;28;20486;-72
2021/05/12 08:31:25;;;;;;;4.63;2.87;;;11.80;99.90;;;;;;5035943;28;20443;-73
2021/05/12 08:33:50;;;;;;;6.03;3.30;;;11.80;99.90;;;;;;5012618;28;20522;-72
2021/05/12 08:36:16;;;;;;;3.17;2.77;;;11.80;99.90;;;;;;5038095;28;20476;-72
2021/05/12 08:38:46;;;;;;;7.57;3.00;;;11.80;99.90;;;;;;5015385;28;20596;-73
2021/05/12 08:41:13;;;;;;;6.20;3.20;;;11.90;99.90;;;;;;5031112;28;20655;-72
2021/05/12 08:43:40;;;;;;;5.43;2.90;;;11.90;99.90;;;;;;5032248;28;20451;-73
2021/05/12 08:46:07;;;;;;;4.87;3.00;;;12.00;99.90;;;;;;5007708;28;20999;-73
2021/05/12 08:48:36;;;;;;;5.60;3.03;;;11.90;99.90;;;;;;5011923;28;20450;-73
2021/05/12 08:51:03;;;;;;;2.93;2.60;;;12.00;99.90;;;;;;5011982;28;20424;-73
2021/05/12 08:53:29;;;;;;;3.93;2.63;;;12.00;99.90;;;;;;5026979;28;20440;-73
2021/05/12 08:55:55;;;;;;;5.30;2.17;;;12.10;99.90;;;;;;5023978;28;20467;-73
2021/05/12 08:58:20;;;;;;;2.80;2.60;;;12.10;99.90;;;;;;5029719;28;20425;-73
2021/05/12 09:00:46;;;;;;;9.53;2.67;;;12.10;99.90;;;;;;5014920;28;20328;-73
2021/05/12 09:03:12;;;;;;;9.47;3.00;;;12.10;99.90;;;;;;5041228;28;20528;-73
2021/05/12 09:05:37;;;;;;;2.73;2.53;;;12.20;99.90;;;;;;5028659;28;20704;-72
2021/05/12 09:08:03;;;;;;;2.50;2.30;;;12.10;99.90;;;;;;5032026;28;20189;-72
2021/05/12 09:10:29;;;;;;;4.63;2.40;;;12.20;99.90;;;;;;5036289;28;20786;-72
2021/05/12 09:13:00;;;;;;;4.87;3.00;;;12.30;99.90;;;;;;5019941;28;20188;-71
2021/05/12 09:15:28;;;;;;;3.90;2.97;;;12.30;99.90;;;;;;5011387;28;20221;-72
2021/05/12 09:17:56;;;;;;;6.30;2.40;;;12.60;99.90;;;;;;5008315;28;20527;-71
2021/05/12 09:20:24;;;;;;;5.57;2.30;;;12.70;99.90;;;;;;5029129;28;20435;-74
2021/05/12 09:23:17;;;;;;;2.80;2.60;;;12.80;99.90;;;;;;5029909;28;20431;-74
2021/05/12 09:25:53;;;;;;;4.03;2.43;;;12.80;99.90;;;;;;5033944;28;20439;-75
2021/05/12 09:28:20;;;;;;;7.90;2.50;;;12.90;99.90;;;;;;5026356;28;20446;-72
2021/05/12 09:31:12;;;;;;;4.07;2.57;;;12.80;99.90;;;;;;5005583;28;20437;-73
2021/05/12 09:33:41;;;;;;;3.20;2.87;;;12.90;99.90;;;;;;5018075;28;21099;-73
2021/05/12 09:36:08;;;;;;;3.13;1.93;;;12.80;99.90;;;;;;5030965;28;20492;-73
2021/05/12 09:38:34;;;;;;;2.87;1.87;;;12.80;99.90;;;;;;5012483;28;20445;-72
2021/05/12 09:41:01;;;;;;;5.33;2.40;;;12.80;99.90;;;;;;5031334;28;20914;-73
2021/05/12 09:43:28;;;;;;;5.73;2.37;;;12.90;99.90;;;;;;5030836;28;20513;-73
2021/05/12 09:46:16;;;;;;;4.10;2.23;;;13.00;99.90;;;;;;5012575;28;20444;-73
2021/05/12 09:49:00;;;;;;;2.60;2.40;;;13.20;99.90;;;;;;5031326;28;20416;-73
2021/05/12 09:51:28;;;;;;;2.90;2.37;;;13.20;99.90;;;;;;5029238;28;20452;-73
2021/05/12 09:54:04;;;;;;;6.53;2.30;;;13.40;99.90;;;;;;5030674;28;20514;-73
2021/05/12 09:56:52;;;;;;;8.90;2.97;;;13.50;99.90;;;;;;5004960;28;20838;-73
2021/05/12 09:59:26;;;;;;;3.20;1.90;;;13.60;99.90;;;;;;5012316;28;20428;-73
2021/05/12 10:01:56;;;;;;;2.77;2.37;;;13.60;99.90;;;;;;5027910;28;21005;-73
2021/05/12 10:04:37;;;;;;;3.37;2.10;;;13.60;99.90;;;;;;5030516;28;20428;-74
2021/05/12 10:07:18;;;;;;;2.40;2.20;;;13.60;99.90;;;;;;5026676;28;20571;-73
2021/05/12 10:09:45;;;;;;;4.43;2.53;;;13.70;99.90;;;;;;5030916;28;20491;-73
2021/05/12 10:12:20;;;;;;;6.60;2.77;;;13.80;99.90;;;;;;5015626;28;20425;-73
2021/05/12 10:14:49;;;;;;;2.63;2.43;;;13.70;99.90;;;;;;5024651;28;20490;-74
2021/05/12 10:17:16;;;;;;;5.87;2.20;;;13.70;99.90;;;;;;5023795;28;20436;-73
2021/05/12 10:19:43;;;;;;;6.20;2.53;;;13.70;99.90;;;;;;5011669;28;20946;-73
2021/05/12 10:22:10;;;;;;;2.30;2.10;;;13.50;99.90;;;;;;5023670;28;20582;-73
2021/05/12 10:24:41;;;;;;;6.17;2.57;;;13.50;99.90;;;;;;5024251;28;20495;-73
2021/05/12 10:27:12;;;;;;;5.67;2.80;;;13.50;99.90;;;;;;5014416;28;20528;-73
2021/05/12 10:29:46;;;;;;;5.90;2.37;;;13.50;99.90;;;;;;5020759;28;20810;-73
2021/05/12 10:32:23;;;;;;;5.03;2.73;;;13.50;99.90;;;;;;5032724;28;20416;-73
2021/05/12 10:35:02;;;;;;;5.03;2.90;;;13.50;99.90;;;;;;5031459;28;20560;-73
2021/05/12 10:37:30;;;;;;;3.17;2.87;;;13.40;99.90;;;;;;5029510;28;20427;-74
2021/05/12 10:40:02;;;;;;;8.83;2.30;;;13.30;99.90;;;;;;5014125;28;20524;-73
2021/05/12 10:42:47;;;;;;;4.93;2.33;;;13.30;99.90;;;;;;5015827;28;20443;-74
2021/05/12 10:45:40;;;;;;;5.57;2.30;;;13.20;99.90;;;;;;5028289;28;20459;-74
2021/05/12 10:48:06;;;;;;;5.57;2.80;;;13.20;99.90;;;;;;5011339;28;20491;-74
2021/05/12 10:50:45;;;;;;;4.50;1.93;;;13.20;99.90;;;;;;5029806;28;20437;-73
2021/05/12 10:53:23;;;;;;;2.90;2.70;;;13.30;99.90;;;;;;5013677;28;20444;-73
2021/05/12 10:55:58;;;;;;;9.07;2.37;;;13.30;99.90;;;;;;5023344;28;20490;-73
2021/05/12 10:58:25;;;;;;;2.37;1.80;;;13.30;99.90;;;;;;5033840;28;20415;-73
2021/05/12 11:00:58;;;;;;;3.07;1.97;;;13.40;99.90;;;;;;5029451;28;20436;-74
2021/05/12 11:03:25;;;;;;;2.20;2.00;;;13.60;99.90;;;;;;5015492;28;20428;-74
2021/05/12 11:05:51;;;;;;;5.50;2.60;;;13.60;99.90;;;;;;5031096;28;20429;-73
2021/05/12 11:08:17;;;;;;;3.50;2.00;;;13.70;99.90;;;;;;5033353;28;20427;-73
2021/05/12 11:10:58;;;;;;;4.10;2.33;;;13.70;99.90;;;;;;5031923;28;20267;-73
2021/05/12 11:13:26;;;;;;;3.00;2.10;;;13.60;99.90;;;;;;5023052;28;20531;-74
2021/05/12 11:16:00;;;;;;;5.47;2.03;;;13.70;99.90;;;;;;5030804;28;20475;-73
2021/05/12 11:18:52;;;;;;;5.80;2.47;;;13.80;99.90;;;;;;5031285;28;20476;-73
2021/05/12 11:21:18;;;;;;;4.17;2.20;;;13.80;99.90;;;;;;5026735;28;20535;-73
2021/05/12 11:24:03;;;;;;;5.17;2.20;;;13.90;99.90;;;;;;5014290;28;20459;-74
2021/05/12 11:32:09;;;;;;;2.17;1.90;;;14.30;99.90;;;;;;5031594;28;20509;-74
2021/05/12 11:34:36;;;;;;;2.97;1.97;;;14.40;99.90;;;;;;5013310;28;20530;-74
2021/05/12 11:37:10;;;;;;;5.23;2.63;;;14.50;99.90;;;;;;5015161;28;20449;-73
2021/05/12 11:39:36;;;;;;;3.13;2.13;;;14.40;99.90;;;;;;5030760;28;20437;-74
2021/05/12 11:42:02;;;;;;;6.27;2.47;;;14.30;99.90;;;;;;5032443;28;20432;-73
2021/05/12 11:44:28;;;;;;;4.10;2.60;;;14.20;99.90;;;;;;5028509;28;20198;-73
2021/05/12 11:46:53;;;;;;;3.53;1.73;;;14.20;99.90;;;;;;5028519;28;20417;-73
2021/05/12 11:49:21;;;;;;;8.07;2.73;;;14.20;99.90;;;;;;5030319;28;20186;-74
2021/05/12 11:51:48;;;;;;;10.17;2.87;;;14.20;99.90;;;;;;5032768;28;20169;-74
2021/05/12 11:54:21;;;;;;;5.77;2.80;;;14.30;99.90;;;;;;5030775;28;20453;-74
2021/05/12 11:56:46;;;;;;;7.33;3.13;;;14.30;99.90;;;;;;5030566;28;20795;-73
2021/05/12 11:59:21;;;;;;;7.83;3.10;;;14.40;99.90;;;;;;5031675;28;20417;-74
2021/05/12 12:01:56;;;;;;;3.47;2.70;;;14.40;99.90;;;;;;5031658;28;20178;-74
2021/05/12 12:06:51;;;;;;;4.67;2.23;;;14.20;99.90;;;;;;5028461;28;20437;-74
2021/05/12 12:09:18;;;;;;;3.47;2.50;;;14.20;99.90;;;;;;5032288;28;20419;-74
2021/05/12 12:11:44;;;;;;;2.77;2.33;;;14.10;99.90;;;;;;5030103;28;20178;-74
2021/05/12 12:14:10;;;;;;;7.03;2.60;;;14.00;99.90;;;;;;5031965;28;20800;-74
2021/05/12 12:16:38;;;;;;;3.63;2.73;;;14.20;99.90;;;;;;5027032;28;20560;-74
2021/05/12 12:19:17;;;;;;;8.87;2.90;;;14.20;99.90;;;;;;5031957;28;20409;-74
2021/05/12 12:21:49;;;;;;;10.00;3.60;;;14.30;99.90;;;;;;5013801;28;20458;-74
2021/05/12 12:24:17;;;;;;;2.43;2.13;;;14.40;99.90;;;;;;5031222;28;20453;-73
2021/05/12 12:26:47;;;;;;;5.50;2.80;;;14.50;99.90;;;;;;5028785;28;20468;-75
2021/05/12 12:29:14;;;;;;;4.10;2.93;;;14.50;99.90;;;;;;5018111;28;20442;-74
2021/05/12 12:31:47;;;;;;;5.40;2.27;;;14.50;99.90;;;;;;5031981;28;20883;-74
2021/05/12 12:34:21;;;;;;;4.07;3.53;;;14.60;99.90;;;;;;5030780;28;20852;-75
2021/05/12 12:36:49;;;;;;;5.20;2.97;;;14.60;99.90;;;;;;5041095;28;20443;-74
2021/05/12 12:39:15;;;;;;;5.00;2.50;;;14.50;99.90;;;;;;5013245;28;20777;-74
2021/05/12 12:41:46;;;;;;;7.57;2.90;;;14.50;99.90;;;;;;5027317;28;20499;-73
2021/05/12 12:44:11;;;;;;;10.87;3.00;;;14.50;99.90;;;;;;5010393;28;21091;-74
2021/05/12 12:46:38;;;;;;;4.57;3.00;;;14.50;99.90;;;;;;5041325;28;20501;-74
2021/05/12 12:49:04;;;;;;;3.47;3.17;;;14.60;99.90;;;;;;5046796;28;20537;-74
2021/05/12 12:51:37;;;;;;;4.60;2.90;;;14.70;99.90;;;;;;5040783;28;20422;-74
2021/05/12 12:54:04;;;;;;;3.10;2.77;;;14.70;99.90;;;;;;5027620;28;20204;-74
2021/05/12 12:56:30;;;;;;;3.20;2.90;;;14.70;99.90;;;;;;5039167;28;20472;-74
2021/05/12 12:59:10;;;;;;;5.50;3.10;;;14.80;99.90;;;;;;5020421;28;20417;-74